Time;durP1;ratioP1;P1;durP2;ratioP2;P2;SDS_P1;SDS_P2;PMS_P1;PMS_P2;Temp;Humidity;BMP_temperature;BMP_pressure;BME280_temperature;BME280_humidity;BME280_pressure;Samples;Min_cycle;Max_cycle;Signal;HPM_P1;HPM_P2
2021/07/06 00:01:30;;;;;;;4.53;3.63;;;;;;;21.91;55.84;94292.72;2991418;39;20341;-80
2021/07/06 00:03:32;;;;;;;4.78;3.40;;;;;;;21.95;55.85;94293.84;2990900;39;20058;-79
2021/07/06 00:05:34;;;;;;;4.07;3.67;;;;;;;21.89;55.87;94301.75;2992925;39;20062;-80
2021/07/06 00:07:37;;;;;;;6.15;4.13;;;;;;;21.83;56.05;94305.38;2987856;39;20055;-80
2021/07/06 00:09:38;;;;;;;6.28;4.07;;;;;;;21.86;56.00;94296.09;2981807;39;20052;-81
2021/07/06 00:11:40;;;;;;;4.63;3.67;;;;;;;21.88;56.07;94300.13;2987268;39;20167;-79
2021/07/06 00:13:42;;;;;;;6.05;3.83;;;;;;;21.82;56.07;94306.41;2982616;39;20060;-80
2021/07/06 00:15:44;;;;;;;5.47;4.55;;;;;;;21.79;56.22;94306.91;2977433;39;20048;-80
2021/07/06 00:17:46;;;;;;;7.65;3.92;;;;;;;21.76;56.16;94302.03;2991013;39;20067;-79
2021/07/06 00:19:50;;;;;;;4.90;4.10;;;;;;;21.71;56.54;94307.28;2990719;39;20126;-80
2021/07/06 00:21:52;;;;;;;4.97;3.80;;;;;;;21.70;56.60;94304.84;2981103;39;20421;-80
2021/07/06 00:23:53;;;;;;;4.05;3.47;;;;;;;21.61;56.75;94307.88;2980003;39;20067;-81
2021/07/06 00:25:55;;;;;;;4.88;3.72;;;;;;;21.59;56.86;94312.63;2983681;39;20164;-80
2021/07/06 00:27:57;;;;;;;3.83;3.40;;;;;;;21.59;56.69;94314.50;2992871;39;20280;-80
2021/07/06 00:29:59;;;;;;;4.03;3.60;;;;;;;21.60;56.66;94310.81;2992681;39;20595;-80
2021/07/06 00:32:02;;;;;;;4.00;3.60;;;;;;;21.59;56.39;94309.16;2991917;39;20423;-80
2021/07/06 00:34:03;;;;;;;6.57;4.10;;;;;;;21.53;56.56;94312.78;2975113;39;20207;-79
2021/07/06 00:36:05;;;;;;;5.72;4.70;;;;;;;21.51;56.61;94317.53;2990028;39;20090;-82
2021/07/06 00:38:07;;;;;;;7.60;5.40;;;;;;;21.53;56.67;94313.63;2970370;39;20152;-79
2021/07/06 00:40:09;;;;;;;7.90;5.00;;;;;;;21.58;56.40;94316.38;2992553;39;20058;-80
2021/07/06 00:42:12;;;;;;;7.35;5.00;;;;;;;21.60;56.14;94308.94;2992102;39;20141;-81
2021/07/06 00:44:16;;;;;;;5.28;4.10;;;;;;;21.65;56.11;94316.22;2992627;39;20415;-69
2021/07/06 00:46:18;;;;;;;5.10;4.00;;;;;;;21.65;55.50;94306.38;2973246;39;20056;-69
2021/07/06 00:48:20;;;;;;;5.20;3.63;;;;;;;21.71;55.33;94317.16;2982165;39;20440;-68
2021/07/06 00:50:23;;;;;;;5.40;3.88;;;;;;;21.75;55.34;94326.28;2991676;39;20064;-68
2021/07/06 00:52:25;;;;;;;5.90;4.38;;;;;;;21.76;55.18;94323.38;2982540;39;20516;-80
2021/07/06 00:54:27;;;;;;;5.82;4.22;;;;;;;21.79;55.05;94320.25;2992427;39;20079;-81
2021/07/06 00:56:29;;;;;;;5.65;3.90;;;;;;;21.84;55.26;94324.84;2992444;39;20055;-81
2021/07/06 00:58:31;;;;;;;6.25;4.18;;;;;;;21.84;54.96;94317.66;2982513;39;20416;-80
2021/07/06 01:00:34;;;;;;;4.95;4.38;;;;;;;21.88;54.81;94323.34;2981942;39;20055;-69
2021/07/06 01:02:36;;;;;;;4.78;3.88;;;;;;;21.87;54.65;94330.50;2981279;39;20055;-69
2021/07/06 01:04:39;;;;;;;4.38;3.88;;;;;;;21.83;54.61;94325.88;2982522;39;20355;-69
2021/07/06 01:06:41;;;;;;;4.13;3.60;;;;;;;21.74;55.17;94327.31;2991769;39;20070;-69
2021/07/06 01:08:45;;;;;;;7.25;4.10;;;;;;;21.67;55.36;94324.78;2992681;39;20055;-69
2021/07/06 01:10:47;;;;;;;4.30;3.78;;;;;;;21.59;55.32;94325.16;2983721;39;20240;-69
2021/07/06 01:12:49;;;;;;;4.72;3.60;;;;;;;21.58;55.31;94323.56;2992551;39;20069;-69
2021/07/06 01:14:51;;;;;;;4.75;3.90;;;;;;;21.46;55.73;94327.03;2992471;39;20419;-70
2021/07/06 01:16:53;;;;;;;4.50;4.00;;;;;;;21.50;55.48;94324.72;2992203;39;20047;-69
2021/07/06 01:18:55;;;;;;;7.00;3.95;;;;;;;21.50;55.73;94324.72;2993039;39;20054;-78
2021/07/06 01:20:57;;;;;;;4.82;3.83;;;;;;;21.53;55.56;94318.09;2993819;39;20113;-79
2021/07/06 01:22:59;;;;;;;5.18;4.22;;;;;;;21.53;55.56;94329.59;2992823;39;20051;-80
2021/07/06 01:25:03;;;;;;;6.90;3.70;;;;;;;21.50;55.55;94322.06;2983813;39;20054;-80
2021/07/06 01:27:04;;;;;;;;;;;;;;;21.56;55.31;94325.66;2984582;39;20047;-80
2021/07/06 01:29:06;;;;;;;5.68;4.18;;;;;;;21.59;55.58;94328.63;2990740;39;20039;-79
2021/07/06 01:31:08;;;;;;;5.88;4.35;;;;;;;21.67;55.24;94327.47;2992844;39;20167;-81
2021/07/06 01:33:10;;;;;;;7.88;4.15;;;;;;;21.68;55.21;94334.41;2991454;39;20319;-79
2021/07/06 01:35:13;;;;;;;5.50;3.80;;;;;;;21.75;55.04;94336.97;2983950;39;20050;-79
2021/07/06 01:37:16;;;;;;;6.97;3.95;;;;;;;21.77;54.81;94329.50;2995162;39;20063;-81
2021/07/06 01:39:20;;;;;;;5.88;3.88;;;;;;;21.76;54.73;94327.91;2982858;39;20378;-80
2021/07/06 01:41:22;;;;;;;4.85;3.78;;;;;;;21.79;54.81;94330.91;2975798;39;20160;-79
2021/07/06 01:43:24;;;;;;;4.13;3.72;;;;;;;21.78;54.56;94331.94;2995610;39;20055;-81
2021/07/06 01:45:28;;;;;;;6.80;4.20;;;;;;;21.77;55.04;94324.16;2978729;39;20088;-80
2021/07/06 01:47:30;;;;;;;4.47;4.03;;;;;;;21.67;55.19;94333.59;2992191;39;20054;-79
2021/07/06 01:49:33;;;;;;;4.65;4.15;;;;;;;21.51;55.57;94331.69;2990155;39;20049;-80
2021/07/06 01:51:35;;;;;;;5.00;4.03;;;;;;;21.52;55.66;94327.16;2993977;39;20375;-78
2021/07/06 01:53:36;;;;;;;7.05;4.28;;;;;;;21.53;55.58;94329.59;2993104;39;21751;-79
2021/07/06 01:55:41;;;;;;;6.20;4.57;;;;;;;21.53;55.50;94336.75;2992951;39;20075;-78
2021/07/06 01:57:43;;;;;;;7.80;4.20;;;;;;;21.51;55.47;94331.69;2993169;39;20066;-80
2021/07/06 01:59:45;;;;;;;6.97;3.83;;;;;;;21.51;55.16;94336.19;2983644;39;20383;-80
2021/07/06 02:01:47;;;;;;;5.10;4.03;;;;;;;21.53;55.20;94329.59;2982318;39;20360;-79
2021/07/06 02:03:50;;;;;;;4.90;4.07;;;;;;;21.56;55.36;94329.13;2982512;39;20059;-80
2021/07/06 02:05:58;;;;;;;5.43;4.33;;;;;;;21.60;55.39;94335.59;2982445;39;20071;-69
2021/07/06 02:08:01;;;;;;;5.15;4.55;;;;;;;21.00;56.93;94343.91;2994703;39;20060;-69
2021/07/06 02:10:04;;;;;;;5.55;4.18;;;;;;;21.06;56.77;94341.09;2982771;39;20088;-69
2021/07/06 02:12:06;;;;;;;7.97;4.57;;;;;;;21.11;56.92;94353.72;2992531;39;20424;-69
2021/07/06 02:14:07;;;;;;;6.97;4.70;;;;;;;21.06;56.84;94345.63;2992378;39;20079;-68
2021/07/06 02:16:10;;;;;;;5.95;4.18;;;;;;;21.11;56.74;94348.41;2991697;39;20043;-69
2021/07/06 02:18:19;;;;;;;6.45;4.28;;;;;;;21.18;56.51;94348.28;2981964;39;20062;-68
2021/07/06 02:20:22;;;;;;;9.02;4.75;;;;;;;21.18;56.51;94349.06;2983032;39;20420;-69
2021/07/06 02:22:23;;;;;;;5.85;4.78;;;;;;;21.12;57.27;94350.00;2993926;39;20062;-69
2021/07/06 02:24:25;;;;;;;5.03;4.00;;;;;;;21.14;56.83;94350.59;2993616;39;20059;-69
2021/07/06 02:26:27;;;;;;;8.32;4.63;;;;;;;21.12;56.43;94350.00;2992181;39;20067;-68
2021/07/06 02:28:30;;;;;;;7.75;4.68;;;;;;;21.05;56.83;94351.97;2992400;39;20084;-69
2021/07/06 02:30:31;;;;;;;5.97;4.30;;;;;;;21.10;56.93;94354.78;2983238;39;20120;-80
2021/07/06 02:32:33;;;;;;;6.47;4.50;;;;;;;21.16;56.74;94348.50;2988663;39;20483;-80
2021/07/06 02:34:35;;;;;;;7.05;5.00;;;;;;;21.19;56.58;94350.72;2993284;39;20126;-80
2021/07/06 02:36:37;;;;;;;11.63;5.63;;;;;;;21.21;56.45;94355.81;2986199;39;20109;-80
2021/07/06 02:38:39;;;;;;;5.38;4.53;;;;;;;21.20;56.65;94360.31;2995720;39;20083;-80
2021/07/06 02:40:41;;;;;;;6.35;4.88;;;;;;;21.19;56.64;94356.03;2995115;39;20047;-80
2021/07/06 02:42:43;;;;;;;5.28;4.47;;;;;;;21.21;56.65;94356.63;2986187;39;20111;-80
2021/07/06 02:44:45;;;;;;;8.70;4.78;;;;;;;21.20;56.65;94356.84;2995123;39;20055;-79
2021/07/06 02:46:46;;;;;;;6.72;4.88;;;;;;;21.15;56.89;94362.88;2991767;39;20052;-81
2021/07/06 02:48:48;;;;;;;5.65;4.93;;;;;;;21.13;57.12;94354.31;2993565;39;20059;-79
2021/07/06 02:50:50;;;;;;;5.82;4.75;;;;;;;20.83;57.80;94352.56;2994938;39;20063;-78
2021/07/06 02:52:53;;;;;;;7.55;5.20;;;;;;;20.78;57.97;94356.94;2995610;39;20150;-80
2021/07/06 02:54:55;;;;;;;8.32;4.97;;;;;;;20.66;58.22;94355.09;2985802;39;20444;-80
2021/07/06 02:56:56;;;;;;;6.40;4.95;;;;;;;20.67;58.40;94353.25;2994089;39;20055;-80
2021/07/06 02:58:58;;;;;;;7.15;4.97;;;;;;;20.66;58.47;94348.97;2994237;39;20358;-81
2021/07/06 03:01:00;;;;;;;7.22;4.57;;;;;;;20.66;58.38;94356.94;2991026;39;20137;-69
2021/07/06 03:03:08;;;;;;;5.88;5.00;;;;;;;20.74;58.24;94361.13;2974114;39;20133;-69
2021/07/06 03:05:12;;;;;;;8.15;5.35;;;;;;;20.77;58.27;94364.13;2988841;39;20050;-70
2021/07/06 03:07:13;;;;;;;7.13;5.18;;;;;;;20.83;58.12;94357.09;2990814;39;20139;-69
2021/07/06 03:09:15;;;;;;;7.10;5.50;;;;;;;20.78;58.14;94360.44;2991127;39;20059;-69
2021/07/06 03:11:17;;;;;;;5.75;5.07;;;;;;;20.79;58.18;94363.91;2992325;39;20407;-71
2021/07/06 03:13:18;;;;;;;8.65;5.22;;;;;;;20.75;58.39;94363.56;2992123;39;20044;-70
2021/07/06 03:15:22;;;;;;;7.32;5.50;;;;;;;20.71;58.54;94366.91;2982242;39;20052;-68
2021/07/06 03:17:24;;;;;;;;;;;;;;;20.73;58.53;94370.97;2996440;39;20427;-69
2021/07/06 03:19:26;;;;;;;6.82;5.35;;;;;;;20.81;58.05;94369.81;2992096;39;19939;-69
2021/07/06 03:21:27;;;;;;;6.32;4.88;;;;;;;20.85;58.16;94379.78;2996483;39;20501;-68
2021/07/06 03:23:29;;;;;;;6.78;5.68;;;;;;;20.86;58.07;94376.09;2991947;39;20396;-69
2021/07/06 03:25:33;;;;;;;6.90;5.15;;;;;;;20.92;58.15;94378.84;2982402;39;20512;-68
2021/07/06 03:27:36;;;;;;;;;;;;;;;20.92;58.03;94381.50;2983668;39;20055;-69
2021/07/06 03:29:38;;;;;;;8.87;5.70;;;;;;;20.89;58.13;94388.13;2974595;39;20017;-69
2021/07/06 03:31:39;;;;;;;6.03;4.97;;;;;;;20.85;58.03;94382.44;2980036;39;20048;-70
2021/07/06 03:33:41;;;;;;;10.55;5.13;;;;;;;20.95;57.84;94381.03;2991219;39;20063;-69
2021/07/06 03:35:44;;;;;;;6.78;5.53;;;;;;;20.96;57.71;94380.81;2987426;39;20055;-70
2021/07/06 03:37:46;;;;;;;6.70;5.38;;;;;;;21.08;57.21;94383.50;2986656;39;20090;-69
2021/07/06 03:39:48;;;;;;;6.47;5.40;;;;;;;21.16;57.10;94388.44;2984294;39;20151;-69
2021/07/06 03:41:50;;;;;;;7.60;5.15;;;;;;;21.25;57.02;94394.22;2993603;39;20345;-70
2021/07/06 03:43:52;;;;;;;8.75;5.30;;;;;;;21.34;56.70;94392.84;2991828;39;20043;-70
2021/07/06 03:45:53;;;;;;;5.75;5.05;;;;;;;21.41;56.38;94398.06;2983407;39;20048;-69
2021/07/06 03:47:56;;;;;;;8.30;6.20;;;;;;;21.46;56.58;94400.84;2987343;39;20054;-69
2021/07/06 03:49:57;;;;;;;7.47;5.68;;;;;;;21.54;55.80;94400.50;2986816;39;20054;-69
2021/07/06 03:51:59;;;;;;;7.60;5.53;;;;;;;21.61;55.75;94400.38;2980052;39;20062;-69
2021/07/06 03:54:01;;;;;;;7.75;4.88;;;;;;;21.70;55.69;94406.16;2974493;39;20383;-69
2021/07/06 03:56:03;;;;;;;11.65;6.13;;;;;;;21.76;55.33;94407.88;2972863;39;20064;-69
2021/07/06 03:58:05;;;;;;;6.68;4.88;;;;;;;21.84;55.06;94407.50;2982348;39;20134;-69
2021/07/06 04:00:09;;;;;;;7.75;5.22;;;;;;;21.88;54.96;94406.00;2986538;39;20047;-70
2021/07/06 04:02:11;;;;;;;5.75;4.95;;;;;;;21.91;54.79;94410.03;2981760;39;20123;-69
2021/07/06 04:04:12;;;;;;;8.32;5.60;;;;;;;21.93;54.46;94408.75;2988222;39;20056;-80
2021/07/06 04:06:14;;;;;;;9.63;5.55;;;;;;;21.98;54.45;94408.84;2988603;39;20051;-82
2021/07/06 04:08:16;;;;;;;6.93;5.35;;;;;;;22.08;54.05;94409.06;2983274;39;20058;-80
2021/07/06 04:10:18;;;;;;;7.43;5.30;;;;;;;22.15;53.80;94410.78;2987265;39;20107;-80
2021/07/06 04:12:20;;;;;;;7.88;5.60;;;;;;;22.17;53.99;94412.16;2988316;39;20124;-81
2021/07/06 04:14:21;;;;;;;8.05;5.82;;;;;;;22.22;54.08;94411.44;2987499;39;20067;-81
2021/07/06 04:16:23;;;;;;;9.82;5.45;;;;;;;22.27;53.58;94424.91;2990216;39;20115;-81
2021/07/06 04:18:25;;;;;;;7.82;6.10;;;;;;;22.15;54.27;94427.59;2992811;39;20059;-80
2021/07/06 04:20:27;;;;;;;9.32;6.07;;;;;;;22.10;54.26;94424.81;2992429;39;20067;-82
2021/07/06 04:22:29;;;;;;;6.18;5.43;;;;;;;21.87;54.81;94431.03;2982722;39;20051;-84
2021/07/06 04:24:31;;;;;;;10.45;6.20;;;;;;;21.82;55.22;94433.59;2991392;39;20051;-80
2021/07/06 04:26:32;;;;;;;6.53;5.55;;;;;;;21.61;55.56;94435.81;2974748;39;20329;-82
2021/07/06 04:28:35;;;;;;;10.63;5.57;;;;;;;21.57;55.88;94436.53;2982598;39;20151;-82
2021/07/06 04:30:37;;;;;;;8.47;5.43;;;;;;;21.77;55.39;94431.66;2980988;39;20072;-83
2021/07/06 04:32:39;;;;;;;7.53;5.78;;;;;;;21.96;54.92;94437.63;2983245;39;20424;-81
2021/07/06 04:34:40;;;;;;;8.60;5.80;;;;;;;22.09;54.08;94437.38;2992566;39;20076;-81
2021/07/06 04:36:42;;;;;;;7.65;5.82;;;;;;;22.26;53.57;94449.97;2983184;39;20149;-81
2021/07/06 04:38:44;;;;;;;7.78;5.75;;;;;;;22.33;53.60;94445.31;2993038;39;20645;-84
2021/07/06 04:40:46;;;;;;;9.05;5.70;;;;;;;22.46;53.17;94452.22;2992488;39;20062;-82
2021/07/06 04:42:47;;;;;;;8.43;6.15;;;;;;;22.55;53.40;94457.97;2984149;39;20129;-81
2021/07/06 04:44:49;;;;;;;8.82;5.57;;;;;;;22.62;52.95;94453.31;2994662;39;20130;-82
2021/07/06 04:46:51;;;;;;;6.85;5.05;;;;;;;22.59;52.88;94459.13;2994955;39;20063;-82
2021/07/06 04:48:52;;;;;;;7.75;6.15;;;;;;;22.60;52.90;94466.88;2994486;39;20424;-81
2021/07/06 04:50:54;;;;;;;8.00;5.63;;;;;;;22.66;53.10;94462.44;2994427;39;20079;-80
2021/07/06 04:52:56;;;;;;;10.40;6.15;;;;;;;22.76;52.91;94459.97;2986485;39;20036;-82
2021/07/06 04:54:58;;;;;;;6.47;5.28;;;;;;;22.64;53.10;94477.91;2986426;39;20076;-82
2021/07/06 04:57:00;;;;;;;6.70;5.22;;;;;;;22.67;53.33;94472.06;2988391;39;20409;-83
2021/07/06 04:59:02;;;;;;;7.10;4.63;;;;;;;22.65;53.62;94474.16;2998398;39;20054;-82
2021/07/06 05:01:04;;;;;;;8.13;5.20;;;;;;;22.49;54.06;94475.75;2995990;39;20078;-80
2021/07/06 05:03:06;;;;;;;8.07;5.50;;;;;;;22.62;53.51;94480.00;2986026;39;20055;-68
2021/07/06 05:05:09;;;;;;;7.88;5.60;;;;;;;22.73;53.54;94483.66;2989578;39;20640;-70
2021/07/06 05:07:11;;;;;;;5.85;5.13;;;;;;;22.74;53.36;94490.63;2981650;39;20051;-69
2021/07/06 05:09:13;;;;;;;8.05;6.10;;;;;;;22.52;54.35;94499.31;2992698;39;20075;-70
2021/07/06 05:11:15;;;;;;;5.68;5.07;;;;;;;22.59;53.88;94491.97;2991532;39;20067;-68
2021/07/06 05:13:17;;;;;;;9.05;6.18;;;;;;;22.52;54.43;94493.97;2982476;39;20044;-69
2021/07/06 05:15:19;;;;;;;7.82;6.18;;;;;;;22.48;54.79;94488.28;2980760;39;20503;-70
2021/07/06 05:17:20;;;;;;;6.28;5.68;;;;;;;22.37;55.10;94493.66;2985559;39;20140;-69
2021/07/06 05:19:22;;;;;;;7.53;5.57;;;;;;;22.22;55.54;94496.81;2984932;39;20047;-69
2021/07/06 05:21:25;;;;;;;6.60;5.47;;;;;;;22.28;55.59;94504.72;2985766;39;20098;-70
2021/07/06 05:23:41;;;;;;;7.68;6.18;;;;;;;22.06;56.24;94499.16;2984915;39;20670;-67
2021/07/06 05:25:43;;;;;;;8.20;6.20;;;;;;;21.92;57.23;94494.31;2983113;39;20073;-70
2021/07/06 05:27:45;;;;;;;6.93;5.95;;;;;;;22.09;56.63;94498.72;2974981;39;20084;-69
2021/07/06 05:29:47;;;;;;;9.75;6.25;;;;;;;22.29;55.96;94493.00;2983548;39;20212;-70
2021/07/06 05:31:49;;;;;;;8.88;6.28;;;;;;;22.26;56.18;94496.16;2982152;39;20060;-70
2021/07/06 05:33:51;;;;;;;9.13;6.50;;;;;;;22.40;55.78;94498.53;2983444;39;20071;-69
2021/07/06 05:35:53;;;;;;;13.77;6.80;;;;;;;22.04;56.99;94501.25;2984397;39;20488;-69
2021/07/06 05:37:54;;;;;;;8.75;6.45;;;;;;;21.71;58.45;94506.44;2984498;39;20071;-69
2021/07/06 05:39:57;;;;;;;8.57;6.90;;;;;;;21.74;58.28;94505.94;2983185;39;20051;-71
2021/07/06 05:41:59;;;;;;;7.07;6.38;;;;;;;21.97;57.75;94497.91;2985080;39;20056;-70
2021/07/06 05:44:01;;;;;;;8.13;5.78;;;;;;;22.19;57.56;94502.63;2983091;39;20088;-70
2021/07/06 05:46:02;;;;;;;8.52;6.47;;;;;;;22.45;57.07;94501.28;2982364;39;20051;-67
2021/07/06 05:48:05;;;;;;;9.60;6.25;;;;;;;22.42;57.19;94499.91;2984085;39;20060;-70
2021/07/06 05:50:11;;;;;;;10.73;6.80;;;;;;;22.51;57.30;94495.00;2983324;39;20077;-71
2021/07/06 05:52:13;;;;;;;9.68;6.57;;;;;;;22.62;56.89;94501.34;2989481;39;20051;-70
2021/07/06 05:54:15;;;;;;;12.48;7.40;;;;;;;22.44;57.48;94505.84;2981268;39;20099;-68
2021/07/06 05:56:17;;;;;;;9.05;6.72;;;;;;;22.25;58.10;94504.38;2976557;39;20052;-69
2021/07/06 05:58:19;;;;;;;8.95;7.05;;;;;;;22.03;58.39;94509.53;2984352;39;20707;-68
2021/07/06 06:00:21;;;;;;;7.88;6.65;;;;;;;22.15;58.17;94506.81;2984430;39;20060;-69
2021/07/06 06:02:23;;;;;;;8.50;6.97;;;;;;;22.30;57.67;94515.16;2988799;39;20043;-84
2021/07/06 06:04:26;;;;;;;8.65;6.38;;;;;;;22.22;57.97;94507.47;2991072;39;20052;-82
2021/07/06 06:06:28;;;;;;;6.80;6.10;;;;;;;22.31;57.66;94507.97;2985777;39;20044;-84
2021/07/06 06:08:30;;;;;;;8.27;5.90;;;;;;;22.59;56.94;94499.16;2986043;39;20403;-83
2021/07/06 06:10:31;;;;;;;9.38;7.30;;;;;;;22.79;56.01;94501.41;2985920;39;20055;-84
2021/07/06 06:12:33;;;;;;;7.82;6.28;;;;;;;22.89;55.88;94505.06;2984778;39;20100;-84
2021/07/06 06:14:36;;;;;;;9.27;7.45;;;;;;;22.55;56.74;94500.69;2993210;39;20070;-83
2021/07/06 06:16:37;;;;;;;9.30;6.32;;;;;;;22.69;56.87;94510.84;2993779;39;20435;-83
2021/07/06 06:18:39;;;;;;;7.28;5.65;;;;;;;22.80;56.22;94503.00;2998611;39;20046;-81
2021/07/06 06:20:41;;;;;;;7.47;6.47;;;;;;;22.89;55.70;94497.03;2996045;39;20356;-83
2021/07/06 06:22:43;;;;;;;11.02;6.70;;;;;;;22.75;56.81;94511.75;2984587;39;20051;-83
2021/07/06 06:24:45;;;;;;;10.85;6.95;;;;;;;22.42;57.55;94502.59;2993834;39;20062;-84
2021/07/06 06:26:49;;;;;;;7.57;6.18;;;;;;;22.25;57.78;94505.19;2994404;39;20372;-84
2021/07/06 06:28:51;;;;;;;8.35;5.68;;;;;;;22.57;56.56;94487.91;2984362;39;20062;-84
2021/07/06 06:30:54;;;;;;;6.60;5.90;;;;;;;22.46;56.24;94501.06;2994507;39;20064;-82
2021/07/06 06:32:56;;;;;;;;;;;;;;;22.74;56.13;94495.97;2994664;39;20063;-81
2021/07/06 06:34:57;;;;;;;8.35;6.50;;;;;;;22.82;55.81;94506.25;2994320;39;19939;-82
2021/07/06 06:36:59;;;;;;;6.85;6.05;;;;;;;23.07;54.09;94503.25;2993235;39;20052;-83
2021/07/06 06:39:01;;;;;;;7.30;6.22;;;;;;;23.14;53.94;94503.09;2986590;39;20047;-82
2021/07/06 06:41:03;;;;;;;7.88;5.82;;;;;;;23.16;53.71;94498.31;2996709;39;20138;-83
2021/07/06 06:43:05;;;;;;;5.88;5.25;;;;;;;22.97;54.14;94506.50;2989174;39;20155;-84
2021/07/06 06:45:08;;;;;;;7.68;6.22;;;;;;;23.04;54.15;94493.06;2995670;39;20051;-82
2021/07/06 06:47:09;;;;;;;10.40;6.65;;;;;;;23.14;54.28;94493.19;2993249;39;20059;-84
2021/07/06 06:49:13;;;;;;;9.02;6.70;;;;;;;23.26;53.35;94491.28;2984026;39;20039;-83
2021/07/06 06:51:15;;;;;;;7.80;6.00;;;;;;;23.44;53.51;94489.41;2993844;39;20076;-85
2021/07/06 06:53:17;;;;;;;7.53;6.00;;;;;;;23.29;52.94;94489.97;2992904;39;20063;-81
2021/07/06 06:55:18;;;;;;;6.10;5.50;;;;;;;23.54;52.48;94491.44;2983963;39;20163;-84
2021/07/06 06:57:21;;;;;;;10.02;5.80;;;;;;;23.58;52.50;94508.59;2991686;39;20144;-81
2021/07/06 06:59:23;;;;;;;7.88;5.93;;;;;;;23.76;51.83;94494.19;2982988;39;20432;-82
2021/07/06 07:01:25;;;;;;;6.13;4.97;;;;;;;23.82;51.13;94483.31;2992230;39;20066;-82
2021/07/06 07:03:27;;;;;;;6.45;5.72;;;;;;;23.80;51.62;94485.41;2984750;39;20131;-83
2021/07/06 07:05:28;;;;;;;6.32;5.57;;;;;;;23.85;51.63;94487.34;2995128;39;20059;-82
2021/07/06 07:07:30;;;;;;;6.43;5.43;;;;;;;23.60;50.52;94496.59;2995048;39;20054;-69
2021/07/06 07:09:32;;;;;;;6.40;4.90;;;;;;;23.27;51.77;94490.22;2982627;39;20055;-70
2021/07/06 07:11:34;;;;;;;6.70;5.60;;;;;;;22.88;53.87;94490.06;2979090;39;20063;-70
2021/07/06 07:13:36;;;;;;;6.55;5.85;;;;;;;22.95;54.00;94489.09;2974232;39;20117;-69
2021/07/06 07:15:38;;;;;;;7.38;5.88;;;;;;;23.04;54.25;94482.38;2991129;39;20331;-69
2021/07/06 07:17:40;;;;;;;8.25;5.45;;;;;;;23.42;51.76;94480.81;2989964;39;20091;-70
2021/07/06 07:19:42;;;;;;;6.80;5.57;;;;;;;23.63;51.47;94488.09;2981612;39;20055;-69
2021/07/06 07:21:44;;;;;;;8.38;5.43;;;;;;;23.94;51.21;94479.69;2982801;39;20066;-71
2021/07/06 07:23:45;;;;;;;7.40;5.95;;;;;;;23.99;50.73;94482.47;2992326;39;20052;-69
2021/07/06 07:25:47;;;;;;;7.95;5.30;;;;;;;24.22;49.99;94470.69;2989200;39;20067;-69
2021/07/06 07:27:50;;;;;;;9.13;5.35;;;;;;;24.23;49.51;94477.66;2993478;39;20053;-70
2021/07/06 07:29:51;;;;;;;14.20;8.43;;;;;;;24.16;49.61;94466.34;2997137;39;20131;-70
2021/07/06 07:31:53;;;;;;;6.00;5.22;;;;;;;24.05;49.66;94466.22;2990170;39;20464;-69
2021/07/06 07:33:55;;;;;;;11.48;5.97;;;;;;;24.24;49.89;94465.88;2989343;39;20047;-70
2021/07/06 07:35:57;;;;;;;10.15;6.40;;;;;;;24.03;50.09;94475.56;2991932;39;20127;-70
2021/07/06 07:37:59;;;;;;;6.93;5.10;;;;;;;24.09;50.38;94469.19;2982820;39;20404;-69
2021/07/06 07:40:02;;;;;;;11.82;7.80;;;;;;;23.93;50.59;94470.88;2991759;39;20385;-69
2021/07/06 07:42:04;;;;;;;10.00;7.10;;;;;;;23.93;50.23;94470.88;2981898;39;20101;-69
2021/07/06 07:44:06;;;;;;;8.90;5.80;;;;;;;24.11;49.76;94475.94;2993084;39;20089;-71
2021/07/06 07:46:08;;;;;;;7.32;5.15;;;;;;;24.47;49.18;94465.63;2992438;39;20045;-70
2021/07/06 07:48:10;;;;;;;9.30;5.13;;;;;;;24.67;48.98;94466.91;2985893;39;20058;-71
2021/07/06 07:50:11;;;;;;;9.57;5.35;;;;;;;24.89;47.09;94474.91;2989545;39;20049;-71
2021/07/06 07:52:13;;;;;;;5.43;4.40;;;;;;;25.11;46.11;94466.78;2974739;39;20549;-70
2021/07/06 07:54:15;;;;;;;6.10;4.13;;;;;;;25.28;45.66;94467.50;2978373;39;20058;-69
2021/07/06 07:56:17;;;;;;;9.02;5.65;;;;;;;25.40;46.11;94474.53;2990314;39;20108;-72
2021/07/06 07:58:19;;;;;;;6.70;4.93;;;;;;;25.47;45.97;94469.78;2982465;39;20163;-72
2021/07/06 08:00:20;;;;;;;8.63;6.00;;;;;;;25.28;46.49;94470.19;2991056;39;20087;-71
2021/07/06 08:02:23;;;;;;;8.15;5.88;;;;;;;24.82;47.11;94469.75;2988515;39;20055;-70
2021/07/06 08:04:25;;;;;;;8.18;5.80;;;;;;;24.71;47.61;94462.66;2981868;39;20062;-70
2021/07/06 08:06:27;;;;;;;11.00;6.70;;;;;;;24.85;47.32;94474.59;2991742;39;20150;-71
2021/07/06 08:08:29;;;;;;;8.63;6.53;;;;;;;25.03;45.55;94470.75;2982291;39;20125;-69
2021/07/06 08:10:31;;;;;;;8.70;4.80;;;;;;;25.31;43.77;94472.34;2991224;39;20043;-69
2021/07/06 08:12:32;;;;;;;6.63;4.13;;;;;;;25.49;43.57;94463.09;2990820;39;20059;-71
2021/07/06 08:14:34;;;;;;;4.22;3.50;;;;;;;25.71;43.03;94464.84;2992093;39;20126;-71
2021/07/06 08:16:36;;;;;;;7.57;5.50;;;;;;;25.54;43.38;94481.09;2991548;39;20150;-70
2021/07/06 08:18:38;;;;;;;6.40;4.97;;;;;;;25.24;44.27;94471.75;2975131;39;20545;-70
2021/07/06 08:20:40;;;;;;;10.02;5.70;;;;;;;25.08;43.51;94478.84;2980773;39;20094;-70
2021/07/06 08:22:42;;;;;;;5.95;4.53;;;;;;;25.31;43.83;94472.34;2993352;39;20106;-71
2021/07/06 08:24:45;;;;;;;7.63;4.93;;;;;;;25.53;43.37;94482.16;2992894;39;20147;-71
2021/07/06 08:26:47;;;;;;;7.50;5.15;;;;;;;25.41;44.40;94473.50;2992761;39;20067;-69
2021/07/06 08:28:48;;;;;;;7.20;3.85;;;;;;;25.35;44.10;94483.38;2983846;39;20322;-70
2021/07/06 08:30:50;;;;;;;6.35;4.30;;;;;;;25.44;44.44;94481.00;2992330;39;20063;-70
2021/07/06 08:32:52;;;;;;;5.07;4.45;;;;;;;25.67;43.89;94488.69;2992838;39;20136;-70
2021/07/06 08:34:55;;;;;;;7.45;5.10;;;;;;;25.33;45.35;94475.56;2983384;39;20047;-71
2021/07/06 08:36:56;;;;;;;9.70;3.70;;;;;;;25.60;44.59;94474.69;2983599;39;20043;-71
2021/07/06 08:38:58;;;;;;;7.38;4.75;;;;;;;25.61;44.88;94486.22;2992678;39;20613;-69
2021/07/06 08:41:00;;;;;;;8.73;5.38;;;;;;;25.66;44.96;94494.31;2994062;39;20394;-70
2021/07/06 08:43:02;;;;;;;7.35;4.80;;;;;;;25.65;44.51;94484.66;2983398;39;20119;-70
2021/07/06 08:45:06;;;;;;;7.05;4.65;;;;;;;25.70;44.01;94479.31;2990001;39;20063;-69
2021/07/06 08:47:07;;;;;;;;;;;;;;;25.80;43.96;94486.63;2975131;39;20063;-70
2021/07/06 08:49:10;;;;;;;5.15;3.90;;;;;;;26.08;43.67;94480.09;2979098;39;19936;-69
2021/07/06 08:51:13;;;;;;;5.85;4.32;;;;;;;26.32;43.71;94478.56;2981731;39;20114;-68
2021/07/06 08:53:15;;;;;;;5.05;4.15;;;;;;;26.48;42.79;94486.69;2979289;39;20400;-68
2021/07/06 08:55:19;;;;;;;4.75;3.70;;;;;;;26.67;42.05;94481.66;2983242;39;20054;-70
2021/07/06 08:57:21;;;;;;;5.15;3.70;;;;;;;26.85;42.09;94478.50;2987404;39;20060;-70
2021/07/06 08:59:23;;;;;;;8.07;4.43;;;;;;;27.00;41.93;94479.59;2992693;39;20054;-83
2021/07/06 09:01:28;;;;;;;7.18;4.85;;;;;;;26.08;43.09;94474.72;2994941;39;20087;-82
2021/07/06 09:04:08;;;;;;;8.23;4.95;;;;;;;26.03;43.90;94483.56;2976386;39;20132;-83
2021/07/06 09:06:11;;;;;;;4.25;3.67;;;;;;;26.22;42.74;94483.09;2949075;40;20093;-82
2021/07/06 09:08:28;;;;;;;4.70;4.07;;;;;;;26.57;42.19;94482.47;2950984;40;20068;-83
2021/07/06 09:10:38;;;;;;;6.35;4.75;;;;;;;26.60;42.04;94479.22;2949438;39;20070;-83
2021/07/06 09:12:40;;;;;;;6.45;4.47;;;;;;;26.70;41.36;94481.16;2993406;39;20131;-83
2021/07/06 09:14:46;;;;;;;4.78;4.00;;;;;;;26.54;41.15;94475.72;2991474;39;20408;-82
2021/07/06 09:16:50;;;;;;;5.25;3.65;;;;;;;26.24;41.21;94472.91;2990618;39;20058;-87
2021/07/06 09:18:51;;;;;;;6.03;4.35;;;;;;;26.59;41.24;94469.56;2990296;39;20077;-82
2021/07/06 09:20:58;;;;;;;9.18;3.92;;;;;;;26.96;41.03;94474.75;2993219;39;20063;-82
2021/07/06 09:23:20;;;;;;;3.97;3.58;;;;;;;27.13;40.44;94479.88;2995726;39;20053;-86
2021/07/06 09:25:26;;;;;;;4.90;3.38;;;;;;;27.30;40.49;94476.94;2984230;39;20032;-84
2021/07/06 09:27:35;;;;;;;4.82;3.58;;;;;;;27.02;39.93;94478.25;2989976;39;20102;-83
2021/07/06 09:29:37;;;;;;;5.88;4.07;;;;;;;26.99;40.37;94478.78;2984341;39;20055;-83
2021/07/06 09:31:38;;;;;;;5.32;4.18;;;;;;;26.90;40.19;94478.50;2981860;39;20408;-84
2021/07/06 09:34:00;;;;;;;5.38;3.70;;;;;;;26.63;40.11;94477.91;2992924;39;20070;-83
2021/07/06 09:36:02;;;;;;;6.38;3.85;;;;;;;26.73;40.36;94472.56;2981551;39;20065;-81
2021/07/06 09:38:04;;;;;;;4.43;4.00;;;;;;;26.73;40.01;94470.66;2994482;39;20059;-84